createdAt,value
2018-12-19T00:00:26.737Z,14.67
2018-12-19T00:02:54.357Z,15.83
2018-12-19T00:05:22.667Z,15.93
2018-12-19T00:07:50.284Z,14.37
2018-12-19T00:10:17.872Z,14.40
2018-12-19T00:12:45.492Z,14.47
2018-12-19T00:15:13.206Z,15.40
2018-12-19T00:17:41.718Z,14.93
2018-12-19T00:20:09.449Z,15.03
2018-12-19T00:22:37.067Z,14.20
2018-12-19T00:25:04.660Z,15.87
2018-12-19T00:27:32.360Z,15.80
2018-12-19T00:29:59.947Z,15.73
2018-12-19T00:32:27.654Z,16.23
2018-12-19T00:34:55.624Z,15.47
2018-12-19T00:37:23.312Z,15.73
2018-12-19T00:39:50.909Z,16.57
2018-12-19T00:42:18.533Z,15.10
2018-12-19T00:44:46.167Z,15.00
2018-12-19T00:47:14.033Z,16.43
2018-12-19T00:49:41.630Z,16.67
2018-12-19T00:52:09.871Z,14.47
2018-12-19T00:54:37.462Z,13.23
2018-12-19T00:57:05.089Z,14.17
2018-12-19T00:59:32.766Z,15.63
2018-12-19T01:02:00.391Z,15.97
2018-12-19T01:04:28.415Z,15.60
2018-12-19T01:06:56.035Z,14.57
2018-12-19T01:09:23.623Z,15.03
2018-12-19T01:11:51.290Z,14.60
2018-12-19T01:14:18.883Z,13.73
2018-12-19T01:16:46.510Z,14.97
2018-12-19T01:19:14.248Z,14.17
2018-12-19T01:21:41.847Z,15.47
2018-12-19T01:24:09.572Z,14.13
2018-12-19T01:26:37.521Z,15.40
2018-12-19T01:29:05.141Z,14.23
2018-12-19T01:31:32.864Z,14.50
2018-12-19T01:34:00.493Z,13.30
2018-12-19T01:36:28.087Z,13.93
2018-12-19T01:38:55.701Z,15.20
2018-12-19T01:41:23.937Z,13.93
2018-12-19T01:43:51.690Z,13.03
2018-12-19T01:46:19.281Z,13.43
2018-12-19T01:48:46.906Z,13.60
2018-12-19T01:51:15.206Z,15.07
2018-12-19T01:53:43.662Z,14.43
2018-12-19T01:56:11.266Z,13.53
2018-12-19T01:58:38.889Z,13.57
2018-12-19T02:01:06.482Z,13.70
2018-12-19T02:03:34.107Z,12.97
2018-12-19T02:06:03.228Z,14.60
2018-12-19T02:08:30.854Z,13.23
2018-12-19T02:10:58.652Z,13.83
2018-12-19T02:13:26.388Z,13.97
2018-12-19T02:15:53.984Z,13.00
2018-12-19T02:18:21.637Z,13.40
2018-12-19T02:20:49.286Z,12.83
2018-12-19T02:23:16.905Z,13.53
2018-12-19T02:25:44.498Z,13.87
2018-12-19T02:28:12.119Z,12.93
2018-12-19T02:30:39.723Z,13.23
2018-12-19T02:33:07.672Z,16.57
2018-12-19T02:35:35.268Z,13.20
2018-12-19T02:38:02.903Z,12.83
2018-12-19T02:40:30.505Z,13.13
2018-12-19T02:42:58.160Z,13.37
2018-12-19T02:45:25.787Z,14.87
2018-12-19T02:47:54.311Z,14.33
2018-12-19T02:50:21.933Z,14.13
2018-12-19T02:52:49.525Z,13.63
2018-12-19T02:55:17.256Z,14.37
2018-12-19T02:57:44.849Z,15.80
2018-12-19T03:00:12.577Z,16.27
2018-12-19T03:02:40.167Z,14.23
2018-12-19T03:05:07.793Z,14.57
2018-12-19T03:07:35.386Z,13.53
2018-12-19T03:10:03.566Z,14.53
2018-12-19T03:12:31.186Z,13.87
2018-12-19T03:14:58.904Z,15.87
2018-12-19T03:17:26.532Z,13.37
2018-12-19T03:19:54.167Z,14.17
2018-12-19T03:22:21.777Z,15.40
2018-12-19T03:24:49.409Z,13.43
2018-12-19T03:27:17.008Z,13.73
2018-12-19T03:29:44.653Z,14.47
2018-12-19T03:32:12.972Z,13.97
2018-12-19T03:34:40.654Z,15.00
2018-12-19T03:37:08.386Z,15.33
2018-12-19T03:39:36.591Z,15.30
2018-12-19T03:42:04.190Z,14.90
2018-12-19T03:44:32.588Z,14.40
2018-12-19T03:47:00.197Z,13.13
2018-12-19T03:49:28.980Z,14.00
2018-12-19T03:51:56.574Z,14.70
2018-12-19T03:54:24.367Z,13.97
2018-12-19T03:56:52.229Z,14.17
2018-12-19T03:59:19.828Z,13.47
2018-12-19T04:01:47.456Z,14.47
2018-12-19T04:04:15.062Z,14.00
2018-12-19T04:06:42.697Z,13.30
2018-12-19T04:09:10.518Z,12.87
2018-12-19T04:11:38.153Z,14.43
2018-12-19T04:14:06.070Z,15.07
2018-12-19T04:16:33.692Z,14.90
2018-12-19T04:19:02.028Z,15.80
2018-12-19T04:21:30.297Z,14.33
2018-12-19T04:23:57.896Z,14.60
2018-12-19T04:26:25.542Z,14.13
2018-12-19T04:28:53.148Z,12.90
2018-12-19T04:31:20.778Z,13.40
2018-12-19T04:33:48.426Z,13.37
2018-12-19T04:36:16.794Z,12.63
2018-12-19T04:38:44.495Z,12.97
2018-12-19T04:41:12.140Z,12.70
2018-12-19T04:43:39.749Z,13.00
2018-12-19T04:46:07.379Z,14.90
2018-12-19T04:48:34.982Z,13.23
2018-12-19T04:51:03.140Z,14.83
2018-12-19T04:53:30.740Z,13.90
2018-12-19T04:55:58.412Z,14.17
2018-12-19T04:58:26.754Z,12.70
2018-12-19T05:00:54.389Z,13.20
2018-12-19T05:03:21.992Z,14.07
2018-12-19T05:05:49.583Z,13.67
2018-12-19T05:08:17.203Z,13.90
2018-12-19T05:10:44.798Z,14.67
2018-12-19T05:13:12.427Z,13.37
2018-12-19T05:15:40.028Z,14.10
2018-12-19T05:18:07.662Z,14.73
2018-12-19T05:20:35.416Z,13.77
2018-12-19T05:23:03.648Z,14.10
2018-12-19T05:25:32.389Z,11.67
2018-12-19T05:28:00.760Z,13.07
2018-12-19T05:30:28.362Z,13.53
2018-12-19T05:32:55.995Z,13.83
2018-12-19T05:35:23.587Z,15.00
2018-12-19T05:37:51.211Z,14.43
2018-12-19T05:40:19.261Z,13.63
2018-12-19T05:42:47.015Z,13.50
2018-12-19T05:45:15.232Z,15.30
2018-12-19T05:47:42.862Z,13.53
2018-12-19T05:50:10.965Z,13.93
2018-12-19T05:52:39.357Z,15.23
2018-12-19T05:55:07.068Z,14.33
2018-12-19T05:57:35.573Z,14.63
2018-12-19T06:00:04.137Z,15.03
2018-12-19T06:02:31.836Z,14.10
2018-12-19T06:04:59.463Z,14.80
2018-12-19T06:07:27.089Z,15.07
2018-12-19T06:09:54.678Z,13.90
2018-12-19T06:12:23.188Z,15.33
2018-12-19T06:14:50.787Z,15.17
2018-12-19T06:17:18.419Z,14.90
2018-12-19T06:19:46.006Z,15.17
2018-12-19T06:22:14.311Z,14.10
2018-12-19T06:24:41.908Z,15.83
2018-12-19T06:27:11.058Z,15.00
2018-12-19T06:29:38.647Z,15.53
2018-12-19T06:32:06.280Z,16.07
2018-12-19T06:34:33.885Z,14.93
2018-12-19T06:37:02.068Z,15.73
2018-12-19T06:39:29.656Z,15.03
2018-12-19T06:41:57.313Z,15.87
2018-12-19T06:44:24.908Z,15.40
2018-12-19T06:46:52.534Z,14.50
2018-12-19T06:49:21.213Z,15.80
2018-12-19T06:51:48.841Z,15.50
2018-12-19T06:54:16.501Z,17.00
2018-12-19T06:56:44.098Z,15.23
2018-12-19T06:59:12.292Z,16.20
2018-12-19T07:01:40.652Z,14.83
2018-12-19T07:04:08.283Z,13.67
2018-12-19T07:06:36.718Z,13.77
2018-12-19T07:09:05.554Z,13.90
2018-12-19T07:11:33.145Z,13.80
2018-12-19T07:14:02.127Z,15.03
2018-12-19T07:16:29.732Z,13.33
2018-12-19T07:18:57.417Z,14.80
2018-12-19T07:21:26.028Z,14.00
2018-12-19T07:23:53.926Z,13.67
2018-12-19T07:26:22.124Z,14.83
2018-12-19T07:28:49.753Z,14.90
2018-12-19T07:31:17.340Z,14.37
2018-12-19T07:33:46.260Z,14.30
2018-12-19T07:36:13.858Z,14.93
2018-12-19T07:38:41.485Z,15.33
2018-12-19T07:41:09.081Z,15.13
2018-12-19T07:43:36.710Z,14.63
2018-12-19T07:46:04.459Z,13.23
2018-12-19T07:48:33.247Z,15.23
2018-12-19T07:51:00.999Z,15.13
2018-12-19T07:53:28.632Z,14.13
2018-12-19T07:55:56.635Z,15.30
2018-12-19T07:58:24.524Z,16.00
2018-12-19T08:00:52.170Z,14.40
2018-12-19T08:03:20.552Z,15.07
2018-12-19T08:05:48.215Z,14.07
2018-12-19T08:08:15.847Z,14.03
2018-12-19T08:10:43.451Z,15.00
2018-12-19T08:13:11.575Z,15.53
2018-12-19T08:15:39.780Z,14.53
2018-12-19T08:18:21.091Z,14.80
2018-12-19T08:20:49.304Z,14.27
2018-12-19T08:23:16.931Z,14.03
2018-12-19T08:25:53.052Z,15.70
2018-12-19T08:28:21.639Z,15.10
2018-12-19T08:30:49.234Z,15.13
2018-12-19T08:33:16.866Z,16.30
2018-12-19T08:35:45.358Z,15.80
2018-12-19T08:38:13.828Z,16.83
2018-12-19T08:40:43.352Z,15.30
2018-12-19T08:43:11.089Z,14.70
2018-12-19T08:45:39.732Z,15.63
2018-12-19T08:48:07.371Z,15.10
2018-12-19T08:50:34.965Z,16.30
2018-12-19T08:53:02.603Z,15.93
2018-12-19T08:55:30.630Z,17.17
2018-12-19T08:57:58.607Z,14.73
2018-12-19T09:00:26.261Z,15.83
2018-12-19T09:02:54.267Z,14.87
2018-12-19T09:05:21.866Z,16.17
2018-12-19T09:07:50.095Z,15.57
2018-12-19T09:10:17.718Z,15.17
2018-12-19T09:12:45.319Z,16.07
2018-12-19T09:15:14.995Z,15.80
2018-12-19T09:17:46.509Z,15.67
2018-12-19T09:20:14.443Z,14.73
2018-12-19T09:22:42.072Z,16.37
2018-12-19T09:25:09.697Z,15.43
2018-12-19T09:27:37.519Z,16.13
2018-12-19T09:30:07.549Z,16.57
2018-12-19T09:32:39.999Z,16.77
2018-12-19T09:35:08.277Z,15.53
2018-12-19T09:37:39.954Z,16.63
2018-12-19T09:40:07.891Z,15.90
2018-12-19T09:42:36.264Z,14.57
2018-12-19T09:45:04.684Z,15.80
2018-12-19T09:47:32.319Z,16.17
2018-12-19T09:50:01.086Z,15.40
2018-12-19T09:52:28.858Z,14.07
2018-12-19T09:54:57.240Z,16.10
2018-12-19T09:57:28.170Z,14.83
2018-12-19T09:59:57.477Z,15.17
2018-12-19T10:02:25.156Z,15.83
2018-12-19T10:04:52.797Z,14.53
2018-12-19T10:07:21.688Z,15.77
2018-12-19T10:09:51.602Z,16.27
2018-12-19T10:12:19.187Z,16.23
2018-12-19T10:14:47.496Z,15.37
2018-12-19T10:17:15.088Z,14.67
2018-12-19T10:19:42.716Z,15.00
2018-12-19T10:22:10.352Z,16.87
2018-12-19T10:24:43.835Z,15.07
2018-12-19T10:27:13.468Z,16.43
2018-12-19T10:29:41.090Z,15.37
2018-12-19T10:32:08.683Z,15.33
2018-12-19T10:34:38.323Z,15.07
2018-12-19T10:37:07.566Z,15.30
2018-12-19T10:39:35.404Z,15.07
2018-12-19T10:42:02.999Z,16.03
2018-12-19T10:44:31.372Z,15.50
2018-12-19T10:46:58.972Z,15.50
2018-12-19T10:49:26.630Z,15.97
2018-12-19T10:51:54.242Z,15.07
2018-12-19T10:54:21.871Z,15.13
2018-12-19T10:56:49.563Z,15.10
2018-12-19T10:59:17.196Z,15.23
2018-12-19T11:01:44.802Z,14.97
2018-12-19T11:04:12.504Z,15.87
2018-12-19T11:06:40.095Z,15.30
2018-12-19T11:09:08.295Z,15.33
2018-12-19T11:11:35.924Z,15.00
2018-12-19T11:14:03.523Z,16.50
2018-12-19T11:16:31.170Z,14.57
2018-12-19T11:18:58.756Z,14.97
2018-12-19T11:21:26.380Z,15.63
2018-12-19T11:23:54.344Z,15.43
2018-12-19T11:26:21.973Z,15.27
2018-12-19T11:28:49.584Z,14.80
2018-12-19T11:31:17.208Z,14.23
2018-12-19T11:33:44.808Z,15.17
2018-12-19T11:36:12.441Z,15.37
2018-12-19T11:38:40.037Z,14.03
2018-12-19T11:41:07.665Z,14.87
2018-12-19T11:43:35.257Z,15.93
2018-12-19T11:46:02.890Z,14.47
2018-12-19T11:48:31.122Z,16.80
2018-12-19T11:50:58.751Z,15.10
2018-12-19T11:53:26.344Z,15.63
2018-12-19T11:55:53.966Z,16.17
2018-12-19T11:58:21.552Z,14.40
2018-12-19T12:00:49.988Z,15.30
2018-12-19T12:03:17.580Z,15.20
2018-12-19T12:05:45.219Z,14.83
2018-12-19T12:08:12.876Z,14.77
2018-12-19T12:10:40.500Z,15.80
2018-12-19T12:13:08.325Z,14.63
2018-12-19T12:15:35.926Z,15.67
2018-12-19T12:18:03.548Z,16.30
2018-12-19T12:20:31.267Z,16.77
2018-12-19T12:22:58.896Z,14.47
2018-12-19T12:25:26.493Z,15.33
2018-12-19T12:27:54.739Z,15.60
2018-12-19T12:30:22.350Z,14.67
2018-12-19T12:32:50.017Z,15.00
2018-12-19T12:35:18.091Z,15.40
2018-12-19T12:37:45.714Z,15.97
2018-12-19T12:40:14.015Z,14.23
2018-12-19T12:42:41.674Z,15.47
2018-12-19T12:45:09.264Z,14.27
2018-12-19T12:47:36.999Z,15.47
2018-12-19T12:50:05.198Z,15.40
2018-12-19T12:52:32.829Z,14.47
2018-12-19T12:55:00.428Z,14.93
2018-12-19T12:57:28.155Z,12.20
2018-12-19T12:59:56.310Z,17.83
2018-12-19T13:02:23.934Z,16.60
2018-12-19T13:04:51.524Z,14.90
2018-12-19T13:07:19.212Z,14.53
2018-12-19T13:09:46.815Z,15.70
2018-12-19T13:12:14.449Z,15.80
2018-12-19T13:14:42.036Z,15.40
2018-12-19T13:17:09.660Z,15.73
2018-12-19T13:19:37.252Z,17.37
2018-12-19T13:22:04.881Z,15.30
2018-12-19T13:24:32.995Z,16.63
2018-12-19T13:27:00.584Z,16.27
2018-12-19T13:29:28.556Z,15.47
2018-12-19T13:31:56.883Z,15.30
2018-12-19T13:34:24.512Z,15.33
2018-12-19T13:36:52.114Z,16.23
2018-12-19T13:39:19.752Z,15.13
2018-12-19T13:41:47.881Z,15.33
2018-12-19T13:44:16.203Z,15.60
2018-12-19T13:46:44.050Z,15.03
2018-12-19T13:49:12.215Z,16.00
2018-12-19T13:51:39.808Z,15.63
2018-12-19T13:54:07.442Z,15.63
2018-12-19T13:56:35.054Z,15.10
2018-12-19T13:59:02.884Z,14.27
2018-12-19T14:01:30.478Z,14.77
2018-12-19T14:03:58.108Z,16.27
2018-12-19T14:06:26.130Z,15.90
2018-12-19T14:08:53.908Z,15.90
2018-12-19T14:11:21.508Z,16.17
2018-12-19T14:13:49.135Z,15.90
2018-12-19T14:16:18.072Z,15.87
2018-12-19T14:18:45.701Z,14.77
2018-12-19T14:21:13.500Z,15.90
2018-12-19T14:23:41.127Z,15.03
2018-12-19T14:26:08.871Z,16.00
2018-12-19T14:28:36.500Z,17.33
2018-12-19T14:31:04.090Z,15.50
2018-12-19T14:33:32.082Z,15.43
2018-12-19T14:35:59.680Z,15.03
2018-12-19T14:38:27.298Z,14.73
2018-12-19T14:40:55.250Z,15.10
2018-12-19T14:43:22.880Z,16.07
2018-12-19T14:45:50.511Z,15.30
2018-12-19T14:48:18.110Z,16.27
2018-12-19T14:50:46.754Z,15.27
2018-12-19T14:53:14.567Z,15.77
2018-12-19T14:55:42.314Z,15.17
2018-12-19T14:58:09.905Z,15.67
2018-12-19T15:00:38.192Z,16.13
2018-12-19T15:03:06.391Z,16.33
2018-12-19T15:05:34.121Z,15.83
2018-12-19T15:08:13.357Z,16.43
2018-12-19T15:10:44.424Z,17.30
2018-12-19T15:13:12.023Z,15.40
2018-12-19T15:15:39.731Z,17.27
2018-12-19T15:18:07.322Z,16.90
2018-12-19T15:20:34.952Z,15.53
2018-12-19T15:23:02.980Z,15.90
2018-12-19T15:25:33.045Z,16.00
2018-12-19T15:28:00.704Z,16.17
2018-12-19T15:30:28.339Z,15.53
2018-12-19T15:32:56.150Z,18.40
2018-12-19T15:35:23.776Z,15.00
2018-12-19T15:37:51.456Z,15.40
2018-12-19T15:40:19.214Z,14.47
2018-12-19T15:42:46.803Z,15.53
2018-12-19T15:45:16.371Z,14.07
2018-12-19T15:47:49.133Z,15.10
2018-12-19T15:50:28.773Z,15.03
2018-12-19T15:52:56.403Z,14.53
2018-12-19T15:55:24.043Z,14.63
2018-12-19T15:57:53.083Z,14.53
2018-12-19T16:00:20.872Z,15.23
2018-12-19T16:02:48.580Z,14.97
2018-12-19T16:05:16.208Z,15.60
2018-12-19T16:07:43.871Z,15.33
2018-12-19T16:10:11.496Z,15.97
2018-12-19T16:12:39.476Z,15.00
2018-12-19T16:15:07.371Z,16.20
2018-12-19T16:17:34.964Z,14.50
2018-12-19T16:20:02.697Z,15.50
2018-12-19T16:22:31.210Z,16.07
2018-12-19T16:24:59.044Z,16.13
2018-12-19T16:27:34.230Z,13.77
2018-12-19T16:30:02.931Z,17.90
2018-12-19T16:32:30.625Z,15.00
2018-12-19T16:34:58.249Z,15.87
2018-12-19T16:37:26.440Z,15.57
2018-12-19T16:39:54.731Z,15.83
2018-12-19T16:42:22.331Z,16.03
2018-12-19T16:44:49.961Z,16.97
2018-12-19T16:47:18.152Z,16.17
2018-12-19T16:49:46.002Z,17.17
2018-12-19T16:52:13.603Z,16.40
2018-12-19T16:54:41.221Z,16.33
2018-12-19T16:57:09.809Z,14.87
2018-12-19T16:59:37.480Z,16.27
2018-12-19T17:02:05.352Z,16.17
2018-12-19T17:04:33.009Z,16.80
2018-12-19T17:07:00.637Z,16.73
2018-12-19T17:09:28.246Z,19.17
2018-12-19T17:11:57.173Z,16.77
2018-12-19T17:14:24.784Z,16.00
2018-12-19T17:16:53.900Z,15.70
2018-12-19T17:19:22.570Z,17.73
2018-12-19T17:21:50.304Z,17.27
2018-12-19T17:24:17.897Z,15.90
2018-12-19T17:26:45.519Z,16.60
2018-12-19T17:29:13.108Z,16.30
2018-12-19T17:31:41.528Z,15.53
2018-12-19T17:34:09.131Z,15.70
2018-12-19T17:36:37.421Z,17.23
2018-12-19T17:39:05.577Z,16.63
2018-12-19T17:41:33.209Z,16.53
2018-12-19T17:44:00.807Z,16.43
2018-12-19T17:46:28.448Z,17.27
2018-12-19T17:48:56.709Z,16.73
2018-12-19T17:51:24.347Z,16.33
2018-12-19T17:53:52.640Z,17.77
2018-12-19T17:56:20.268Z,16.77
2018-12-19T17:58:47.911Z,16.57
2018-12-19T18:01:15.537Z,19.93
2018-12-19T18:03:43.140Z,16.27
2018-12-19T18:06:10.769Z,16.50
2018-12-19T18:08:38.753Z,16.47
2018-12-19T18:11:06.746Z,18.47
2018-12-19T18:13:34.345Z,17.47
2018-12-19T18:16:01.936Z,18.07
2018-12-19T18:18:29.615Z,17.60
2018-12-19T18:20:57.896Z,18.07
2018-12-19T18:23:25.755Z,18.77
2018-12-19T18:25:53.344Z,18.63
2018-12-19T18:28:21.540Z,18.63
2018-12-19T18:30:49.138Z,21.97
2018-12-19T18:33:17.879Z,17.53
2018-12-19T18:35:45.470Z,17.77
2018-12-19T18:38:13.099Z,15.70
2018-12-19T18:40:40.693Z,16.43
2018-12-19T18:43:12.950Z,17.53
2018-12-19T18:45:38.525Z,15.50
2018-12-19T18:48:06.154Z,16.37
2018-12-19T18:50:33.813Z,14.90
2018-12-19T18:53:01.439Z,15.97
2018-12-19T18:55:29.028Z,16.07
2018-12-19T18:57:56.651Z,16.33
2018-12-19T19:00:31.831Z,16.27
2018-12-19T19:02:59.663Z,18.53
2018-12-19T19:05:27.364Z,17.17
2018-12-19T19:07:55.120Z,16.77
2018-12-19T19:10:23.314Z,17.73
2018-12-19T19:12:50.941Z,16.50
2018-12-19T19:15:18.535Z,16.73
2018-12-19T19:17:46.167Z,19.70
2018-12-19T19:20:13.766Z,18.57
2018-12-19T19:22:41.390Z,18.37
2018-12-19T19:25:08.988Z,15.90
2018-12-19T19:27:36.616Z,16.93
2018-12-19T19:30:05.345Z,18.77
2018-12-19T19:32:33.000Z,18.73
2018-12-19T19:35:00.727Z,18.83
2018-12-19T19:37:28.360Z,19.33
2018-12-19T19:39:57.344Z,18.40
2018-12-19T19:42:25.832Z,18.93
2018-12-19T19:44:54.082Z,17.97
2018-12-19T19:47:22.366Z,21.47
2018-12-19T19:49:49.992Z,18.90
2018-12-19T19:52:17.627Z,19.73
2018-12-19T19:54:45.383Z,17.63
2018-12-19T19:57:12.982Z,19.43
2018-12-19T19:59:40.623Z,19.97
2018-12-19T20:02:08.212Z,18.33
2018-12-19T20:04:35.838Z,18.53
2018-12-19T20:07:03.423Z,18.10
2018-12-19T20:09:31.047Z,18.00
2018-12-19T20:11:58.728Z,17.80
2018-12-19T20:14:26.352Z,17.83
2018-12-19T20:17:01.231Z,19.80
2018-12-19T20:19:29.962Z,21.30
2018-12-19T20:21:57.573Z,19.67
2018-12-19T20:24:25.232Z,20.63
2018-12-19T20:26:53.555Z,18.60
2018-12-19T20:29:21.211Z,17.23
2018-12-19T20:31:48.804Z,17.43
2018-12-19T20:34:16.427Z,18.17
2018-12-19T20:36:44.044Z,17.93
2018-12-19T20:39:11.668Z,18.37
2018-12-19T20:41:39.267Z,18.40
2018-12-19T20:44:06.889Z,18.03
2018-12-19T20:46:35.115Z,18.07
2018-12-19T20:49:02.711Z,17.10
2018-12-19T20:51:30.339Z,16.33
2018-12-19T20:53:57.948Z,18.03
2018-12-19T20:56:25.572Z,18.50
2018-12-19T20:58:54.226Z,16.87
2018-12-19T21:01:22.412Z,16.87
2018-12-19T21:03:50.005Z,16.80
2018-12-19T21:06:17.638Z,17.90
2018-12-19T21:08:45.234Z,15.43
2018-12-19T21:11:12.992Z,16.47
2018-12-19T21:13:46.588Z,15.87
2018-12-19T21:16:14.660Z,16.60
2018-12-19T21:18:46.234Z,17.93
2018-12-19T21:21:14.059Z,17.53
2018-12-19T21:23:42.231Z,17.10
2018-12-19T21:26:09.920Z,15.77
2018-12-19T21:28:37.572Z,15.80
2018-12-19T21:31:05.193Z,17.67
2018-12-19T21:33:32.832Z,16.23
2018-12-19T21:36:00.906Z,16.63
2018-12-19T21:38:28.505Z,17.07
2018-12-19T21:40:56.144Z,18.80
2018-12-19T21:43:23.788Z,18.20
2018-12-19T21:45:51.860Z,18.23
2018-12-19T21:48:20.260Z,17.97
2018-12-19T21:50:47.956Z,17.97
2018-12-19T21:53:15.866Z,17.10
2018-12-19T21:55:43.531Z,16.70
2018-12-19T21:58:11.964Z,16.30
2018-12-19T22:00:40.505Z,16.47
2018-12-19T22:03:07.924Z,16.23
2018-12-19T22:05:35.662Z,16.87
2018-12-19T22:08:03.335Z,17.13
2018-12-19T22:10:31.057Z,18.37
2018-12-19T22:12:59.458Z,18.03
2018-12-19T22:15:27.108Z,16.80
2018-12-19T22:21:14.319Z,18.00
2018-12-19T22:23:42.018Z,16.90
2018-12-19T22:26:09.704Z,17.33
2018-12-19T22:28:37.318Z,18.00
2018-12-19T22:31:05.036Z,17.60
2018-12-19T22:33:32.955Z,18.27
2018-12-19T22:36:00.713Z,16.07
2018-12-19T22:38:28.317Z,16.40
2018-12-19T22:40:55.965Z,16.90
2018-12-19T22:43:23.558Z,19.10
2018-12-19T22:45:51.166Z,20.40
2018-12-19T22:48:18.891Z,17.97
2018-12-19T22:50:46.629Z,18.07
2018-12-19T22:53:14.326Z,17.90
2018-12-19T22:55:42.331Z,18.13
2018-12-19T22:58:10.017Z,16.90
2018-12-19T23:00:43.423Z,16.87
2018-12-19T23:03:11.178Z,16.43
2018-12-19T23:05:45.734Z,15.30
2018-12-19T23:08:13.467Z,18.47
2018-12-19T23:10:41.867Z,17.73
2018-12-19T23:13:09.502Z,15.87
2018-12-19T23:15:37.190Z,15.87
2018-12-19T23:18:10.722Z,16.57
2018-12-19T23:20:38.365Z,16.17
2018-12-19T23:23:06.121Z,17.27
2018-12-19T23:25:33.856Z,16.47
2018-12-19T23:28:01.657Z,17.77
2018-12-19T23:30:29.348Z,16.50
2018-12-19T23:32:57.154Z,17.07
2018-12-19T23:35:25.862Z,17.50
2018-12-19T23:37:54.235Z,17.13
2018-12-19T23:40:21.944Z,16.67
2018-12-19T23:42:49.722Z,17.70
2018-12-19T23:45:17.410Z,18.30
2018-12-19T23:47:45.684Z,18.03
2018-12-19T23:50:13.295Z,17.73
2018-12-19T23:52:40.933Z,17.30
2018-12-19T23:55:09.629Z,16.23
2018-12-19T23:57:37.275Z,17.87
